createdAt,value
2022-11-27T00:01:55.134Z,0.90
2022-11-27T00:06:52.404Z,1.50
2022-11-27T00:09:21.068Z,1.50
2022-11-27T00:14:19.775Z,1.50
2022-11-27T00:16:48.297Z,1.50
2022-11-27T00:19:16.778Z,1.50
2022-11-27T00:21:45.548Z,0.40
2022-11-27T00:24:14.097Z,1.50
2022-11-27T00:26:42.544Z,1.50
2022-11-27T00:29:11.542Z,1.40
2022-11-27T00:31:41.470Z,0.70
2022-11-27T00:34:11.623Z,1.30
2022-11-27T00:36:44.015Z,1.20
2022-11-27T00:39:15.474Z,1.20
2022-11-27T00:41:43.940Z,1.20
2022-11-27T00:44:13.780Z,1.20
2022-11-27T00:46:43.679Z,1.30
2022-11-27T00:49:15.575Z,1.20
2022-11-27T00:51:44.351Z,1.30
2022-11-27T00:54:13.115Z,1.30
2022-11-27T00:56:41.772Z,1.30
2022-11-27T00:59:11.871Z,1.20
2022-11-27T01:01:45.175Z,1.20
2022-11-27T01:06:45.591Z,1.10
2022-11-27T01:09:15.946Z,1.20
2022-11-27T01:11:44.929Z,2.40
2022-11-27T01:14:18.094Z,1.20
2022-11-27T01:16:48.055Z,1.30
2022-11-27T01:19:17.064Z,1.30
2022-11-27T01:21:45.989Z,1.40
2022-11-27T01:24:17.089Z,1.40
2022-11-27T01:26:46.722Z,1.40
2022-11-27T01:29:15.135Z,1.40
2022-11-27T01:31:43.981Z,1.40
2022-11-27T01:34:18.820Z,1.40
2022-11-27T01:36:47.150Z,1.40
2022-11-27T01:39:18.877Z,1.50
2022-11-27T01:41:49.658Z,1.50
2022-11-27T01:44:52.443Z,1.50
2022-11-27T01:47:37.516Z,1.50
2022-11-27T01:50:18.520Z,1.50
2022-11-27T01:52:53.242Z,1.50
2022-11-27T01:55:30.182Z,1.50
2022-11-27T01:58:06.063Z,1.50
2022-11-27T02:00:34.994Z,1.50
2022-11-27T02:03:03.596Z,1.40
2022-11-27T02:05:33.730Z,1.40
2022-11-27T02:08:09.059Z,1.30
2022-11-27T02:10:51.443Z,1.40
2022-11-27T02:13:31.689Z,1.40
2022-11-27T02:16:18.338Z,1.40
2022-11-27T02:18:59.872Z,4.20
2022-11-27T02:21:40.416Z,1.40
2022-11-27T02:24:56.520Z,1.30
2022-11-27T02:27:53.181Z,1.30
2022-11-27T02:30:23.272Z,2.00
2022-11-27T02:32:59.534Z,1.30
2022-11-27T02:35:34.829Z,1.30
2022-11-27T02:38:11.554Z,1.30
2022-11-27T02:40:48.578Z,1.30
2022-11-27T02:43:23.600Z,1.30
2022-11-27T02:45:54.629Z,1.30
2022-11-27T02:48:31.616Z,1.80
2022-11-27T02:51:01.309Z,1.30
2022-11-27T02:53:37.966Z,1.30
2022-11-27T02:56:12.880Z,1.30
2022-11-27T02:58:43.665Z,1.20
2022-11-27T03:01:16.030Z,1.20
2022-11-27T03:03:52.190Z,1.10
2022-11-27T03:06:27.834Z,1.30
2022-11-27T03:09:01.294Z,1.10
2022-11-27T03:11:30.814Z,1.10
2022-11-27T03:14:05.946Z,1.10
2022-11-27T03:16:45.244Z,1.00
2022-11-27T03:19:24.310Z,1.10
2022-11-27T03:21:57.687Z,0.60
2022-11-27T03:24:26.559Z,1.00
2022-11-27T03:26:55.508Z,1.00
2022-11-27T03:29:30.785Z,1.00
2022-11-27T03:32:02.989Z,0.80
2022-11-27T03:39:31.535Z,0.90
2022-11-27T03:42:15.041Z,0.90
2022-11-27T03:44:50.836Z,0.20
2022-11-27T03:47:40.505Z,0.90
2022-11-27T03:50:31.046Z,0.90
2022-11-27T03:53:11.499Z,0.90
2022-11-27T03:55:54.969Z,1.00
2022-11-27T03:58:33.984Z,0.80
2022-11-27T04:01:07.510Z,0.90
2022-11-27T04:03:37.739Z,0.90
2022-11-27T04:08:35.727Z,0.90
2022-11-27T04:11:04.127Z,0.90
2022-11-27T04:16:02.447Z,0.80
2022-11-27T04:18:31.101Z,0.90
2022-11-27T04:21:01.091Z,0.80
2022-11-27T04:23:29.553Z,0.80
2022-11-27T04:25:57.913Z,0.80
2022-11-27T04:28:26.226Z,0.90
2022-11-27T04:30:55.206Z,0.90
2022-11-27T04:33:24.077Z,0.90
2022-11-27T04:38:23.439Z,0.90
2022-11-27T04:40:54.152Z,0.90
2022-11-27T04:43:22.527Z,0.90
2022-11-27T04:48:19.597Z,1.10
2022-11-27T04:50:47.960Z,1.00
2022-11-27T04:55:46.829Z,1.00
2022-11-27T04:58:15.168Z,0.90
2022-11-27T05:00:43.565Z,0.90
2022-11-27T05:03:12.421Z,0.90
2022-11-27T05:05:40.838Z,0.90
2022-11-27T05:08:09.214Z,0.90
2022-11-27T05:10:37.612Z,0.90
2022-11-27T06:29:06.734Z,1.40
2022-11-27T06:31:36.051Z,1.40
2022-11-27T06:34:07.313Z,1.50
2022-11-27T06:36:39.963Z,1.40
2022-11-27T06:39:11.835Z,1.40
2022-11-27T06:49:08.892Z,1.50
2022-11-27T06:54:06.483Z,1.60
2022-11-27T06:56:34.747Z,1.50
2022-11-27T06:59:03.558Z,1.50
2022-11-27T07:01:36.263Z,1.50
2022-11-27T07:04:05.142Z,1.50
2022-11-27T07:06:35.138Z,1.50
2022-11-27T07:21:50.453Z,1.40
2022-11-27T08:26:33.166Z,2.10
2022-11-27T08:31:57.209Z,2.00
2022-11-27T08:34:26.820Z,2.00
2022-11-27T08:36:55.271Z,2.10
2022-11-27T08:39:23.804Z,2.00
2022-11-27T08:41:53.710Z,1.90
2022-11-27T08:46:50.914Z,2.00
2022-11-27T08:49:19.424Z,2.00
2022-11-27T08:51:47.705Z,2.10
2022-11-27T08:54:16.129Z,2.50
2022-11-27T08:56:45.015Z,2.20
2022-11-27T08:59:14.722Z,2.30
2022-11-27T09:01:43.066Z,2.30
2022-11-27T09:04:11.492Z,2.30
2022-11-27T09:06:42.954Z,2.30
2022-11-27T09:11:40.206Z,2.20
2022-11-27T09:16:39.476Z,2.40
2022-11-27T09:19:07.856Z,2.40
2022-11-27T09:21:36.300Z,2.40
2022-11-27T09:24:04.813Z,2.50
2022-11-27T09:26:33.251Z,2.60
2022-11-27T09:29:01.598Z,2.50
2022-11-27T09:31:30.201Z,2.60
2022-11-27T09:39:02.703Z,2.60
2022-11-27T09:41:50.313Z,2.60
2022-11-27T09:44:34.501Z,2.70
2022-11-27T09:47:16.347Z,2.70
2022-11-27T09:49:53.968Z,2.70
2022-11-27T09:52:30.262Z,2.70
2022-11-27T09:57:38.869Z,3.00
2022-11-27T10:00:17.046Z,3.00
2022-11-27T10:02:46.002Z,3.10
2022-11-27T10:05:23.802Z,0.10
2022-11-27T10:08:22.207Z,3.20
2022-11-27T10:11:17.459Z,3.20
2022-11-27T10:14:06.890Z,3.20
2022-11-27T10:16:44.713Z,3.10
2022-11-27T10:19:32.518Z,3.10
2022-11-27T10:22:19.377Z,3.00
2022-11-27T10:25:12.495Z,3.00
2022-11-27T10:30:20.333Z,3.20
2022-11-27T10:32:55.399Z,3.10
2022-11-27T10:35:27.242Z,3.10
2022-11-27T10:40:43.019Z,3.10
2022-11-27T10:43:19.530Z,4.60
2022-11-27T10:45:53.462Z,3.20
2022-11-27T10:53:30.232Z,3.30
2022-11-27T10:56:29.117Z,3.30
2022-11-27T10:59:00.736Z,3.30
2022-11-27T11:01:42.878Z,3.40
2022-11-27T11:07:03.176Z,3.40
2022-11-27T11:09:35.814Z,3.50
2022-11-27T11:12:15.215Z,3.50
2022-11-27T11:14:53.041Z,3.50
2022-11-27T11:17:27.585Z,3.60
2022-11-27T11:22:25.772Z,2.70
2022-11-27T11:24:56.184Z,3.70
2022-11-27T11:30:02.752Z,3.70
2022-11-27T11:35:08.981Z,3.90
2022-11-27T11:37:41.851Z,3.90
2022-11-27T11:40:27.979Z,3.90
2022-11-27T11:42:59.797Z,4.10
2022-11-27T11:45:32.904Z,4.10
2022-11-27T11:50:42.156Z,4.30
2022-11-27T11:53:21.220Z,4.30
2022-11-27T11:56:06.115Z,4.30
2022-11-27T11:58:55.197Z,4.30
2022-11-27T12:01:56.746Z,4.40
2022-11-27T12:07:54.924Z,4.40
2022-11-27T12:10:31.772Z,4.40
2022-11-27T12:13:19.076Z,4.30
2022-11-27T12:15:59.716Z,4.40
2022-11-27T12:18:42.499Z,5.50
2022-11-27T12:24:04.583Z,4.60
2022-11-27T12:26:53.750Z,4.60
2022-11-27T12:29:54.995Z,4.70
2022-11-27T12:32:54.734Z,4.60
2022-11-27T12:35:39.283Z,4.60
2022-11-27T12:38:46.875Z,4.50
2022-11-27T12:41:52.384Z,4.50
2022-11-27T12:47:04.847Z,4.40
2022-11-27T12:52:17.626Z,4.30
2022-11-27T12:54:55.778Z,4.20
2022-11-27T12:57:38.180Z,4.10
2022-11-27T13:00:16.026Z,4.20
2022-11-27T13:02:57.584Z,4.20
2022-11-27T13:05:31.246Z,4.30
2022-11-27T13:08:07.843Z,4.30
2022-11-27T13:10:44.332Z,4.30
2022-11-27T13:13:23.171Z,4.20
2022-11-27T13:18:35.123Z,4.10
2022-11-27T13:21:09.779Z,4.00
2022-11-27T13:28:48.483Z,4.00
2022-11-27T13:31:24.887Z,4.00
2022-11-27T13:34:00.294Z,4.00
2022-11-27T13:36:36.253Z,4.00
2022-11-27T13:39:07.745Z,4.10
2022-11-27T13:41:40.395Z,4.10
2022-11-27T13:44:26.118Z,4.10
2022-11-27T13:47:01.246Z,4.10
2022-11-27T13:49:33.697Z,4.10
2022-11-27T13:52:13.699Z,4.00
2022-11-27T13:54:54.518Z,4.10
2022-11-27T14:00:02.461Z,3.90
2022-11-27T14:02:45.409Z,3.90
2022-11-27T14:05:15.836Z,2.30
2022-11-27T14:07:49.590Z,3.80
2022-11-27T14:10:23.950Z,3.80
2022-11-27T14:13:01.608Z,3.80
2022-11-27T14:15:32.591Z,3.80
2022-11-27T14:18:18.614Z,3.80
2022-11-27T14:23:29.979Z,3.80
2022-11-27T14:28:54.060Z,3.70
2022-11-27T14:31:30.863Z,3.70
2022-11-27T14:34:21.941Z,3.80
2022-11-27T14:39:29.939Z,3.80
2022-11-27T14:42:00.424Z,3.80
2022-11-27T14:44:29.916Z,3.80
2022-11-27T14:49:34.815Z,3.80
2022-11-27T14:52:08.732Z,3.80
2022-11-27T14:57:18.972Z,3.70
2022-11-27T14:59:47.354Z,3.70
2022-11-27T15:02:24.567Z,3.70
2022-11-27T15:05:07.248Z,3.80
2022-11-27T15:07:45.366Z,3.70
2022-11-27T15:10:31.834Z,3.70
2022-11-27T15:13:02.699Z,3.70
2022-11-27T15:15:39.902Z,3.70
2022-11-27T15:18:19.462Z,3.60
2022-11-27T15:20:49.603Z,3.70
2022-11-27T15:26:06.380Z,3.70
2022-11-27T15:31:29.245Z,3.60
2022-11-27T15:34:07.819Z,3.50
2022-11-27T15:36:41.889Z,3.60
2022-11-27T15:41:55.410Z,3.60
2022-11-27T15:44:25.999Z,3.60
2022-11-27T15:46:56.681Z,3.60
2022-11-27T15:49:25.262Z,2.40
2022-11-27T15:54:26.717Z,4.10
2022-11-27T15:56:55.103Z,3.60
2022-11-27T15:59:24.745Z,3.60
2022-11-27T16:01:53.086Z,3.60
2022-11-27T16:04:21.480Z,2.50
2022-11-27T16:06:49.953Z,3.60
2022-11-27T16:09:19.813Z,3.50
2022-11-27T16:11:49.750Z,3.50
2022-11-27T16:14:18.122Z,3.50
2022-11-27T16:19:15.250Z,3.50
2022-11-27T16:21:43.694Z,3.50
2022-11-27T16:26:45.174Z,3.50
2022-11-27T16:31:43.058Z,3.40
2022-11-27T16:36:43.779Z,3.40
2022-11-27T16:39:14.144Z,3.30
2022-11-27T16:44:15.669Z,3.30
2022-11-27T16:46:45.508Z,3.30
2022-11-27T16:51:44.029Z,3.20
2022-11-27T16:54:14.867Z,3.20
2022-11-27T16:59:16.376Z,3.20
2022-11-27T17:01:46.576Z,7.30
2022-11-27T17:04:19.561Z,3.30
2022-11-27T17:06:50.256Z,3.30
2022-11-27T17:09:19.078Z,3.20
2022-11-27T17:11:50.091Z,3.30
2022-11-27T17:14:20.746Z,3.30
2022-11-27T17:24:18.294Z,3.30
2022-11-27T17:26:49.677Z,3.40
2022-11-27T17:29:20.897Z,3.30
2022-11-27T17:31:51.766Z,3.20
2022-11-27T17:34:21.471Z,3.20
2022-11-27T17:36:53.673Z,3.20
2022-11-27T17:39:22.674Z,3.20
2022-11-27T17:41:52.414Z,3.20
2022-11-27T17:44:21.171Z,3.20
2022-11-27T17:49:22.155Z,3.20
2022-11-27T17:54:21.738Z,3.20
2022-11-27T17:56:52.307Z,3.20
2022-11-27T18:01:53.008Z,3.20
2022-11-27T18:06:50.538Z,3.20
2022-11-27T18:09:18.989Z,3.20
2022-11-27T18:14:18.634Z,3.20
2022-11-27T18:19:15.984Z,3.10
2022-11-27T18:24:28.695Z,3.00
2022-11-27T18:27:12.760Z,3.80
2022-11-27T18:29:45.503Z,3.10
2022-11-27T18:34:46.731Z,3.00
2022-11-27T18:39:45.441Z,3.00
2022-11-27T18:47:15.717Z,2.90
2022-11-27T18:49:48.587Z,2.90
2022-11-27T18:52:17.590Z,3.20
2022-11-27T18:54:46.176Z,2.90
2022-11-27T18:57:14.611Z,2.90
2022-11-27T18:59:45.603Z,2.80
2022-11-27T19:02:14.387Z,2.90
2022-11-27T19:04:44.797Z,2.80
2022-11-27T19:09:42.944Z,2.70
2022-11-27T19:19:55.753Z,2.60
2022-11-27T19:24:55.002Z,2.60
2022-11-27T19:27:24.245Z,2.70
2022-11-27T19:29:53.076Z,2.60
2022-11-27T19:32:22.932Z,2.60
2022-11-27T19:34:53.006Z,2.60
2022-11-27T19:37:34.208Z,2.60
2022-11-27T19:40:06.543Z,2.60
2022-11-27T19:45:03.972Z,2.60
2022-11-27T19:47:34.084Z,2.50
2022-11-27T19:57:29.903Z,2.50
2022-11-27T19:59:58.503Z,2.50
2022-11-27T20:02:29.858Z,2.50
2022-11-27T20:04:59.820Z,2.50
2022-11-27T20:09:58.531Z,2.40
2022-11-27T20:12:27.059Z,2.40
2022-11-27T20:17:26.154Z,2.50
2022-11-27T20:19:54.543Z,2.50
2022-11-27T20:22:25.553Z,2.50
2022-11-27T20:25:17.814Z,2.40
2022-11-27T20:27:42.878Z,2.40
2022-11-27T20:30:13.387Z,2.40
2022-11-27T20:32:41.824Z,2.40
2022-11-27T20:35:11.363Z,2.30
2022-11-27T20:37:41.354Z,2.40
2022-11-27T20:40:11.915Z,2.40
2022-11-27T20:42:40.522Z,2.40
2022-11-27T20:45:09.996Z,2.30
2022-11-27T20:47:38.647Z,2.30
2022-11-27T20:50:09.061Z,2.40
2022-11-27T20:52:37.446Z,2.40
2022-11-27T20:55:08.899Z,2.40
2022-11-27T20:57:37.360Z,2.40
2022-11-27T21:00:09.830Z,2.30
2022-11-27T21:02:41.039Z,2.30
2022-11-27T21:05:10.689Z,2.40
2022-11-27T21:07:41.104Z,2.30
2022-11-27T21:10:16.482Z,2.30
2022-11-27T21:12:45.123Z,2.30
2022-11-27T21:15:14.260Z,2.30
2022-11-27T21:17:42.682Z,2.40
2022-11-27T21:20:12.517Z,2.30
2022-11-27T21:22:43.965Z,2.30
2022-11-27T21:25:14.011Z,2.30
2022-11-27T21:27:42.395Z,2.30
2022-11-27T21:30:11.658Z,2.30
2022-11-27T21:32:40.102Z,2.30
2022-11-27T21:35:10.469Z,1.10
2022-11-27T21:37:38.912Z,2.40
2022-11-27T21:40:09.293Z,2.30
2022-11-27T21:42:44.359Z,2.30
2022-11-27T21:45:13.322Z,2.30
2022-11-27T21:47:41.724Z,2.20
2022-11-27T21:50:11.711Z,2.30
2022-11-27T21:55:12.233Z,2.20
2022-11-27T21:57:42.659Z,2.20
2022-11-27T22:02:45.265Z,2.20
2022-11-27T22:05:14.104Z,2.20
2022-11-27T22:07:42.503Z,2.20
2022-11-27T22:10:12.612Z,2.30
2022-11-27T22:12:42.295Z,2.30
2022-11-27T22:15:12.366Z,2.30
2022-11-27T22:17:40.715Z,2.20
2022-11-27T22:20:10.666Z,2.30
2022-11-27T22:22:39.404Z,2.20
2022-11-27T22:25:08.497Z,2.20
2022-11-27T22:27:36.869Z,2.20
2022-11-27T22:30:09.191Z,2.20
2022-11-27T22:32:37.590Z,2.20
2022-11-27T22:35:07.105Z,2.20
2022-11-27T22:37:35.571Z,2.20
2022-11-27T22:42:34.075Z,2.20
2022-11-27T22:45:02.804Z,2.20
2022-11-27T22:47:32.778Z,2.30
2022-11-27T22:52:30.366Z,2.30
2022-11-27T22:54:59.952Z,2.20
2022-11-27T22:57:28.794Z,2.20
2022-11-27T23:04:56.957Z,2.20
2022-11-27T23:07:25.640Z,2.20
2022-11-27T23:09:54.328Z,2.20
2022-11-27T23:12:22.737Z,2.10
2022-11-27T23:14:51.360Z,2.20
2022-11-27T23:17:19.762Z,2.20
2022-11-27T23:22:18.236Z,2.20
2022-11-27T23:24:46.665Z,2.20
2022-11-27T23:27:15.059Z,2.20
2022-11-27T23:29:43.410Z,2.20
2022-11-27T23:32:11.904Z,2.20
2022-11-27T23:34:40.466Z,2.20
2022-11-27T23:37:09.472Z,2.20
2022-11-27T23:39:40.081Z,2.20
2022-11-27T23:42:08.952Z,2.50
2022-11-27T23:44:37.628Z,2.20
2022-11-27T23:57:03.415Z,2.30
2022-11-27T23:59:32.130Z,2.20
